Time;durP1;ratioP1;P1;durP2;ratioP2;P2;SDS_P1;SDS_P2;PMS_P1;PMS_P2;Temp;Humidity;BMP_temperature;BMP_pressure;BME280_temperature;BME280_humidity;BME280_pressure;Samples;Min_cycle;Max_cycle;Signal;HPM_P1;HPM_P2
2024/01/06 00:00:16;;;;;;;;;18.00;17.00;;;;;13.19;100.00;100156.03;2078649;28;46311;-62
2024/01/06 00:01:16;;;;;;;;;22.80;20.60;;;;;13.17;100.00;100155.19;2078543;28;46708;-61
2024/01/06 00:02:16;;;;;;;;;15.75;15.75;;;;;13.15;100.00;100154.41;2077765;28;46236;-62
2024/01/06 00:03:17;;;;;;;;;16.00;13.00;;;;;13.23;100.00;100158.53;2082940;28;46276;-61
2024/01/06 00:04:18;;;;;;;;;19.75;17.50;;;;;13.23;100.00;100165.66;2079427;28;46328;-62
2024/01/06 00:05:18;;;;;;;;;19.80;19.20;;;;;13.22;100.00;100163.91;2078502;28;46315;-63
2024/01/06 00:06:18;;;;;;;;;19.75;18.75;;;;;13.22;100.00;100158.59;2076066;28;46214;-60
2024/01/06 00:07:19;;;;;;;;;18.50;18.00;;;;;13.24;100.00;100159.38;2062679;28;46420;-62
2024/01/06 00:08:19;;;;;;;;;18.00;18.00;;;;;13.23;100.00;100161.19;2063693;28;46312;-61
2024/01/06 00:09:20;;;;;;;;;18.50;17.50;;;;;13.25;100.00;100162.00;2079832;28;46767;-60
2024/01/06 00:10:20;;;;;;;;;19.75;16.75;;;;;13.24;100.00;100162.91;2055150;28;46890;-62
2024/01/06 00:11:21;;;;;;;;;19.50;18.00;;;;;13.24;100.00;100168.25;2055253;28;46416;-62
2024/01/06 00:12:21;;;;;;;;;19.50;19.25;;;;;13.24;100.00;100167.38;2071879;28;46352;-61
2024/01/06 00:13:21;;;;;;;;;17.00;17.00;;;;;13.23;100.00;100171.84;2079991;28;47318;-62
2024/01/06 00:14:22;;;;;;;;;20.25;18.75;;;;;13.22;100.00;100167.44;2080095;28;46045;-62
2024/01/06 00:15:22;;;;;;;;;20.50;19.50;;;;;13.22;100.00;100166.59;2079925;28;46849;-62
2024/01/06 00:16:22;;;;;;;;;16.25;16.25;;;;;13.21;100.00;100162.16;2086012;28;46591;-62
2024/01/06 00:17:23;;;;;;;;;18.25;17.50;;;;;13.21;100.00;100168.38;2088370;28;46232;-62
2024/01/06 00:18:23;;;;;;;;;18.25;17.25;;;;;13.22;100.00;100166.59;2089213;28;46118;-63
2024/01/06 00:19:23;;;;;;;;;17.25;17.25;;;;;13.22;100.00;100167.44;2089160;28;46672;-61
2024/01/06 00:20:24;;;;;;;;;19.75;18.00;;;;;13.22;100.00;100172.78;2089200;28;46639;-62
2024/01/06 00:21:24;;;;;;;;;17.75;16.50;;;;;13.23;100.00;100163.84;2089119;28;46269;-60
2024/01/06 00:22:24;;;;;;;;;18.25;15.75;;;;;13.23;100.00;100165.66;2089947;28;46342;-60
2024/01/06 00:23:25;;;;;;;;;16.50;14.00;;;;;13.23;100.00;100163.84;2098040;28;46281;-62
2024/01/06 00:24:25;;;;;;;;;16.75;16.75;;;;;13.24;100.00;100170.03;2092148;28;46508;-60
2024/01/06 00:25:25;;;;;;;;;18.25;18.25;;;;;13.23;100.00;100169.19;2089731;28;45796;-63
2024/01/06 00:26:25;;;;;;;;;19.50;16.25;;;;;13.24;100.00;100162.91;2089447;28;45941;-61
2024/01/06 00:27:26;;;;;;;;;16.50;16.00;;;;;13.24;100.00;100162.06;2089413;28;46190;-60
2024/01/06 00:28:26;;;;;;;;;20.00;17.00;;;;;13.23;100.00;100160.31;2089449;28;46205;-61
2024/01/06 00:29:26;;;;;;;;;10.75;10.75;;;;;13.23;100.00;100171.84;2089240;28;45472;-61
2024/01/06 00:30:27;;;;;;;;;16.00;16.00;;;;;13.22;100.00;100162.13;2089021;28;46622;-60
2024/01/06 00:31:27;;;;;;;;;16.75;16.75;;;;;13.19;100.00;100167.56;2089708;28;46864;-60
2024/01/06 00:32:29;;;;;;;;;21.50;20.75;;;;;13.19;100.00;100166.69;2089066;28;46610;-62
2024/01/06 00:33:29;;;;;;;;;18.20;18.20;;;;;13.19;100.00;100164.88;2088315;28;46741;-62
2024/01/06 00:34:29;;;;;;;;;22.00;19.75;;;;;13.18;100.00;100167.59;2089642;28;46669;-62
2024/01/06 00:35:30;;;;;;;;;16.25;15.00;;;;;13.16;100.00;100175.66;2089479;28;46288;-61
2024/01/06 00:36:30;;;;;;;;;20.25;19.75;;;;;13.15;100.00;100162.38;2089324;28;46306;-61
2024/01/06 00:37:30;;;;;;;;;17.75;16.00;;;;;13.14;100.00;100172.19;2089249;28;46835;-62
2024/01/06 00:38:31;;;;;;;;;17.25;17.00;;;;;13.13;100.00;100165.13;2089116;28;46300;-60
2024/01/06 00:39:31;;;;;;;;;16.00;14.00;;;;;13.15;100.00;100175.72;2089718;28;44927;-61
2024/01/06 00:40:32;;;;;;;;;17.00;17.00;;;;;13.13;100.00;100174.91;2089421;28;46596;-61
2024/01/06 00:41:32;;;;;;;;;14.60;14.60;;;;;13.11;100.00;100177.63;2089177;28;46690;-62
2024/01/06 00:42:33;;;;;;;;;17.00;15.75;;;;;13.11;100.00;100177.63;2089823;28;46596;-61
2024/01/06 00:43:33;;;;;;;;;14.50;13.75;;;;;13.11;100.00;100176.78;2090126;28;45608;-62
2024/01/06 00:44:36;;;;;;;;;17.25;16.00;;;;;13.13;100.00;100175.78;2088875;28;46718;-62
2024/01/06 00:45:37;;;;;;;;;14.60;14.60;;;;;13.14;100.00;100182.84;2087628;28;46501;-60
2024/01/06 00:46:39;;;;;;;;;13.60;13.60;;;;;13.13;100.00;100177.56;2089043;28;47080;-63
2024/01/06 00:47:39;;;;;;;;;14.20;14.20;;;;;13.13;100.00;100182.91;2089115;28;46860;-61
2024/01/06 00:48:40;;;;;;;;;18.50;17.50;;;;;13.12;100.00;100178.50;2089411;28;46452;-59
2024/01/06 00:49:40;;;;;;;;;16.25;16.25;;;;;13.13;100.00;100172.25;2089646;28;46354;-61
2024/01/06 00:50:40;;;;;;;;;14.25;14.25;;;;;13.13;100.00;100181.09;2089691;28;46441;-61
2024/01/06 00:51:41;;;;;;;;;14.00;13.00;;;;;13.14;100.00;100182.84;2087683;28;48127;-62
2024/01/06 00:52:41;;;;;;;;;14.25;14.25;;;;;13.15;100.00;100184.56;2089672;28;46052;-61
2024/01/06 00:53:41;;;;;;;;;14.25;14.25;;;;;13.16;100.00;100175.66;2098397;28;46641;-61
2024/01/06 00:54:42;;;;;;;;;14.00;14.00;;;;;13.18;100.00;100187.13;2107211;27;45829;-61
2024/01/06 00:55:42;;;;;;;;;18.00;16.25;;;;;13.19;100.00;100188.88;2107116;27;46400;-61
2024/01/06 00:56:43;;;;;;;;;13.75;13.75;;;;;13.19;100.00;100199.53;2108838;27;46217;-60
2024/01/06 00:57:43;;;;;;;;;13.67;13.67;;;;;13.16;100.00;100191.63;2106653;28;46048;-61
2024/01/06 00:58:43;;;;;;;;;15.67;14.00;;;;;13.16;100.00;100182.78;2108371;27;46740;-60
2024/01/06 00:59:44;;;;;;;;;16.25;15.25;;;;;13.18;100.00;100188.91;2094429;28;46719;-61
2024/01/06 01:00:44;;;;;;;;;20.75;16.00;;;;;13.17;100.00;100182.72;2097060;28;46333;-61
2024/01/06 01:01:44;;;;;;;;;12.33;12.33;;;;;13.17;100.00;100190.69;2107979;27;46586;-62
2024/01/06 01:02:45;;;;;;;;;11.33;11.33;;;;;13.17;100.00;100188.03;2108226;27;46295;-59
2024/01/06 01:03:45;;;;;;;;;15.75;15.75;;;;;13.18;100.00;100188.91;2107128;27;46282;-61
2024/01/06 01:04:45;;;;;;;;;10.00;8.33;;;;;13.18;100.00;100195.13;2107869;27;45483;-61
2024/01/06 01:05:46;;;;;;;;;12.00;12.00;;;;;13.19;100.00;100198.66;2096206;28;46827;-60
2024/01/06 01:06:46;;;;;;;;;13.00;13.00;;;;;13.19;100.00;100194.19;2098897;28;46487;-62
2024/01/06 01:07:46;;;;;;;;;12.00;12.00;;;;;13.18;100.00;100192.47;2106509;27;46746;-56
2024/01/06 01:08:47;;;;;;;;;11.67;11.67;;;;;13.20;100.00;100195.06;2106099;28;46249;-61
2024/01/06 01:09:47;;;;;;;;;14.33;14.33;;;;;13.20;100.00;100200.38;2107361;27;46260;-61
2024/01/06 01:10:47;;;;;;;;;18.00;17.50;;;;;13.20;100.00;100195.94;2105786;28;46590;-61
2024/01/06 01:11:48;;;;;;;;;13.75;13.75;;;;;13.21;100.00;100196.78;2108084;27;47590;-60
2024/01/06 01:12:48;;;;;;;;;16.50;16.25;;;;;13.22;100.00;100195.88;2107360;27;46229;-61
2024/01/06 01:13:48;;;;;;;;;13.00;13.00;;;;;13.23;100.00;100200.28;2105923;28;46224;-60
2024/01/06 01:14:49;;;;;;;;;14.00;11.00;;;;;13.23;100.00;100201.16;2107422;27;46360;-60
2024/01/06 01:15:49;;;;;;;;;13.50;13.50;;;;;13.20;100.00;100197.72;2108023;27;46360;-60
2024/01/06 01:16:50;;;;;;;;;18.00;16.33;;;;;13.19;100.00;100201.31;2105891;27;46394;-59
2024/01/06 01:17:50;;;;;;;;;14.00;12.00;;;;;13.18;100.00;100194.22;2107137;27;46267;-60
2024/01/06 01:18:51;;;;;;;;;11.67;11.67;;;;;13.18;100.00;100195.13;2106144;27;46345;-61
2024/01/06 01:19:51;;;;;;;;;14.67;14.67;;;;;13.18;100.00;100196.88;2107698;27;46889;-61
2024/01/06 01:20:51;;;;;;;;;13.00;12.67;;;;;13.17;100.00;100197.81;2107483;27;46716;-62
2024/01/06 01:21:55;;;;;;;;;13.67;12.67;;;;;13.17;100.00;100203.16;2106243;28;46150;-61
2024/01/06 01:22:55;;;;;;;;;18.75;16.00;;;;;13.16;100.00;100201.41;2107477;27;46666;-61
2024/01/06 01:23:55;;;;;;;;;14.67;14.33;;;;;13.13;100.00;100202.41;2106698;27;46262;-61
2024/01/06 01:24:56;;;;;;;;;12.33;12.33;;;;;13.17;100.00;100205.81;2105840;28;46278;-62
2024/01/06 01:25:56;;;;;;;;;16.00;16.00;;;;;13.15;100.00;100199.69;2105998;27;45935;-61
2024/01/06 01:26:56;;;;;;;;;18.00;17.00;;;;;13.15;100.00;100202.34;2106198;28;46433;-62
2024/01/06 01:27:57;;;;;;;;;14.33;14.33;;;;;13.14;100.00;100204.16;2107663;27;46777;-61
2024/01/06 01:28:57;;;;;;;;;17.33;16.67;;;;;13.14;100.00;100204.16;2106934;27;46278;-62
2024/01/06 01:29:57;;;;;;;;;15.33;13.33;;;;;13.13;100.00;100206.88;2105872;28;46187;-60
2024/01/06 01:30:58;;;;;;;;;16.00;14.00;;;;;13.13;100.00;100212.22;2090357;28;46047;-61
2024/01/06 01:31:58;;;;;;;;;19.33;17.00;;;;;13.12;100.00;100213.13;2088608;28;46744;-62
2024/01/06 01:32:58;;;;;;;;;16.00;16.00;;;;;13.12;100.00;100216.66;2107152;27;46696;-62
2024/01/06 01:33:59;;;;;;;;;17.50;16.50;;;;;13.10;100.00;100210.53;2105664;27;46671;-62
2024/01/06 01:34:59;;;;;;;;;16.25;16.25;;;;;13.10;100.00;100210.53;2106019;28;46489;-61
2024/01/06 01:35:59;;;;;;;;;17.75;17.75;;;;;13.09;100.00;100210.59;2107601;27;46725;-61
2024/01/06 01:37:00;;;;;;;;;16.67;16.67;;;;;13.08;100.00;100214.16;2089633;28;46790;-62
2024/01/06 01:38:00;;;;;;;;;14.00;14.00;;;;;13.08;100.00;100216.84;2087928;28;46634;-61
2024/01/06 01:39:00;;;;;;;;;15.50;15.50;;;;;13.06;100.00;100216.03;2107608;27;45628;-61
2024/01/06 01:40:01;;;;;;;;;12.33;12.33;;;;;13.06;100.00;100221.34;2105579;27;46419;-62
2024/01/06 01:41:01;;;;;;;;;18.00;15.75;;;;;13.06;100.00;100216.03;2107304;27;46337;-62
2024/01/06 01:42:02;;;;;;;;;18.00;15.75;;;;;13.06;100.00;100214.22;2105678;27;46526;-60
2024/01/06 01:43:02;;;;;;;;;15.00;14.20;;;;;13.06;100.00;100216.03;2106479;28;45761;-63
2024/01/06 01:44:03;;;;;;;;;16.75;15.00;;;;;13.05;100.00;100219.63;2110873;27;46228;-63
2024/01/06 01:45:05;;;;;;;;;16.25;15.25;;;;;13.04;100.00;100217.91;2105651;27;46214;-62
2024/01/06 01:46:05;;;;;;;;;15.20;14.60;;;;;13.02;100.00;100220.63;2105686;28;46478;-60
2024/01/06 01:47:06;;;;;;;;;13.67;13.67;;;;;13.02;100.00;100222.41;2106872;27;46808;-61
2024/01/06 01:48:07;;;;;;;;;17.20;17.20;;;;;12.98;100.00;100224.34;2105654;27;47087;-65
2024/01/06 01:49:07;;;;;;;;;15.67;13.33;;;;;12.98;100.00;100224.34;2110927;27;47138;-62
2024/01/06 01:50:09;;;;;;;;;14.00;13.67;;;;;12.97;100.00;100225.28;2106517;27;46435;-62
2024/01/06 01:51:10;;;;;;;;;17.00;14.75;;;;;12.95;100.00;100225.31;2105889;28;46711;-62
2024/01/06 01:52:11;;;;;;;;;17.40;16.80;;;;;12.95;100.00;100221.78;2106184;27;46508;-61
2024/01/06 01:53:12;;;;;;;;;14.33;14.33;;;;;12.94;100.00;100225.38;2105838;27;46174;-62
2024/01/06 01:54:13;;;;;;;;;18.40;16.40;;;;;12.93;100.00;100227.16;2096647;28;46589;-61
2024/01/06 01:55:14;;;;;;;;;16.00;16.00;;;;;12.91;100.00;100225.50;2097014;28;46872;-60
2024/01/06 01:56:15;;;;;;;;;18.50;17.50;;;;;12.91;100.00;100237.03;2105983;27;46446;-61
2024/01/06 01:57:16;;;;;;;;;15.75;15.50;;;;;12.90;100.00;100226.44;2105892;27;46531;-60
2024/01/06 01:58:16;;;;;;;;;15.00;15.00;;;;;12.89;100.00;100228.22;2106626;27;46762;-62
2024/01/06 01:59:19;;;;;;;;;16.67;14.00;;;;;12.90;100.00;100227.28;2106956;27;46358;-60
2024/01/06 02:00:20;;;;;;;;;17.50;14.75;;;;;12.90;100.00;100226.44;2105520;27;46811;-61
2024/01/06 02:01:20;;;;;;;;;15.00;15.00;;;;;12.88;100.00;100223.84;2105447;27;46176;-61
2024/01/06 02:02:22;;;;;;;;;12.33;11.00;;;;;12.89;100.00;100227.34;2088271;28;47085;-61
2024/01/06 02:03:23;;;;;;;;;13.75;13.75;;;;;12.88;100.00;100230.94;2090859;28;47007;-62
2024/01/06 02:04:24;;;;;;;;;15.50;13.25;;;;;12.87;100.00;100227.41;2105591;27;46468;-60
2024/01/06 02:05:24;;;;;;;;;16.33;14.33;;;;;12.88;100.00;100237.16;2105722;28;46617;-61
2024/01/06 02:06:24;;;;;;;;;14.67;14.67;;;;;12.87;100.00;100238.06;2105656;27;46820;-61
2024/01/06 02:07:25;;;;;;;;;16.25;16.25;;;;;12.87;100.00;100242.53;2105952;28;45424;-62
2024/01/06 02:08:26;;;;;;;;;15.25;12.50;;;;;12.87;100.00;100235.41;2105946;27;46634;-61
2024/01/06 02:09:29;;;;;;;;;14.50;14.50;;;;;12.88;100.00;100237.16;2105401;27;46869;-62
2024/01/06 02:10:29;;;;;;;;;13.00;12.75;;;;;12.90;100.00;100245.94;2105569;28;47212;-61
2024/01/06 02:11:29;;;;;;;;;12.50;12.25;;;;;12.90;100.00;100239.75;2106007;27;46546;-59
2024/01/06 02:12:30;;;;;;;;;15.75;15.75;;;;;12.91;100.00;100249.47;2105813;27;46280;-60
2024/01/06 02:13:35;;;;;;;;;16.50;15.25;;;;;12.91;100.00;100246.81;2105547;28;46239;-61
2024/01/06 02:14:35;;;;;;;;;15.00;15.00;;;;;12.88;100.00;100244.28;2105544;27;46973;-62
2024/01/06 02:15:35;;;;;;;;;12.25;12.25;;;;;12.88;100.00;100238.94;2105379;28;46405;-61
2024/01/06 02:16:36;;;;;;;;;14.75;14.75;;;;;12.87;100.00;100243.41;2105946;27;46186;-61
2024/01/06 02:17:36;;;;;;;;;14.67;13.00;;;;;12.87;100.00;100247.88;2104480;27;46406;-61
2024/01/06 02:18:36;;;;;;;;;21.00;15.75;;;;;12.86;100.00;100247.00;2105331;28;46394;-61
2024/01/06 02:19:37;;;;;;;;;15.75;14.50;;;;;12.85;100.00;100249.72;2106364;27;45850;-59
2024/01/06 02:20:40;;;;;;;;;12.00;11.00;;;;;12.84;100.00;100248.84;2106874;27;46597;-62
2024/01/06 02:21:43;;;;;;;;;15.40;15.20;;;;;12.83;100.00;100247.13;2101640;28;46881;-62
2024/01/06 02:22:43;;;;;;;;;17.60;15.20;;;;;12.83;100.00;100252.44;2106620;27;45453;-62
2024/01/06 02:23:44;;;;;;;;;12.25;12.25;;;;;12.85;100.00;100263.03;2105456;28;45946;-61
2024/01/06 02:24:44;;;;;;;;;17.25;16.50;;;;;12.85;100.00;100253.25;2106321;27;46507;-61
2024/01/06 02:25:44;;;;;;;;;16.75;16.75;;;;;12.85;100.00;100250.59;2105918;27;46313;-60
2024/01/06 02:26:45;;;;;;;;;12.25;11.00;;;;;12.85;100.00;100257.72;2105355;28;46784;-59
2024/01/06 02:27:45;;;;;;;;;14.00;13.25;;;;;12.83;100.00;100251.53;2106044;27;46726;-60
2024/01/06 02:28:47;;;;;;;;;10.25;10.25;;;;;12.82;100.00;100256.00;2104875;27;45737;-61
2024/01/06 02:29:48;;;;;;;;;17.80;14.20;;;;;12.82;100.00;100257.81;2101302;27;46589;-61
2024/01/06 02:30:49;;;;;;;;;13.25;13.25;;;;;12.83;100.00;100260.44;2107164;27;46473;-61
2024/01/06 02:31:49;;;;;;;;;14.40;14.40;;;;;12.84;100.00;100261.31;2105110;27;47411;-60
2024/01/06 02:32:49;;;;;;;;;18.25;15.00;;;;;12.83;100.00;100256.88;2104943;27;46533;-60
2024/01/06 02:33:50;;;;;;;;;18.75;18.75;;;;;12.84;100.00;100255.97;2091051;28;46294;-61
2024/01/06 02:34:50;;;;;;;;;16.00;16.00;;;;;12.85;100.00;100263.03;2089499;28;46116;-61
2024/01/06 02:35:50;;;;;;;;;16.00;15.75;;;;;12.85;100.00;100261.25;2110776;27;46636;-61
2024/01/06 02:36:51;;;;;;;;;14.75;14.75;;;;;12.86;100.00;100265.63;2106706;27;46316;-57
2024/01/06 02:37:51;;;;;;;;;15.25;15.25;;;;;12.86;100.00;100259.44;2109568;27;46141;-61
2024/01/06 02:38:51;;;;;;;;;17.00;17.00;;;;;12.85;100.00;100261.25;2110244;27;46973;-62
2024/01/06 02:39:53;;;;;;;;;15.25;15.00;;;;;12.87;100.00;100269.16;2087944;28;46669;-60
2024/01/06 02:40:53;;;;;;;;;14.00;14.00;;;;;12.86;100.00;100268.31;2087416;28;47314;-59
2024/01/06 02:41:53;;;;;;;;;17.00;17.00;;;;;12.84;100.00;100262.16;2108119;27;46301;-61
2024/01/06 02:42:54;;;;;;;;;14.00;14.00;;;;;12.85;100.00;100263.03;2098424;28;45847;-61
2024/01/06 02:43:56;;;;;;;;;17.00;17.00;;;;;12.84;100.00;100263.97;2102149;28;46517;-60
2024/01/06 02:44:56;;;;;;;;;19.60;19.60;;;;;12.84;100.00;100271.97;2107129;27;46134;-61
2024/01/06 02:45:56;;;;;;;;;15.75;15.75;;;;;12.83;100.00;100276.41;2109463;27;46284;-60
2024/01/06 02:46:57;;;;;;;;;15.00;15.00;;;;;12.84;100.00;100266.63;2109776;27;46329;-62
2024/01/06 02:47:57;;;;;;;;;16.75;15.50;;;;;12.85;100.00;100274.56;2096763;28;46819;-61
2024/01/06 02:48:57;;;;;;;;;12.75;12.25;;;;;12.85;100.00;100268.38;2100684;28;46604;-60
2024/01/06 02:49:58;;;;;;;;;17.75;16.75;;;;;12.86;100.00;100270.09;2077657;28;46798;-59
2024/01/06 02:50:58;;;;;;;;;16.50;15.25;;;;;12.87;100.00;100274.50;2079846;28;46137;-60
2024/01/06 02:51:58;;;;;;;;;10.25;10.25;;;;;12.86;100.00;100276.28;2103733;27;46005;-60
2024/01/06 02:52:59;;;;;;;;;18.00;18.00;;;;;12.86;100.00;100273.63;2087920;28;46327;-61
2024/01/06 02:53:59;;;;;;;;;16.50;14.75;;;;;12.86;100.00;100273.63;2091482;28;45803;-61
2024/01/06 02:55:00;;;;;;;;;20.25;17.50;;;;;12.87;100.00;100278.03;2108949;27;46291;-60
2024/01/06 02:56:01;;;;;;;;;18.20;16.80;;;;;12.85;100.00;100279.00;2105930;27;46926;-61
2024/01/06 02:57:01;;;;;;;;;18.00;18.00;;;;;12.84;100.00;100282.59;2110125;27;46533;-59
2024/01/06 02:58:01;;;;;;;;;18.00;17.75;;;;;12.84;100.00;100278.16;2107362;27;46326;-61
2024/01/06 02:59:02;;;;;;;;;17.75;17.75;;;;;12.84;100.00;100283.47;2107821;27;46428;-60
2024/01/06 03:00:03;;;;;;;;;15.50;15.50;;;;;12.86;100.00;100288.75;2102827;27;46363;-63
2024/01/06 03:01:03;;;;;;;;;17.80;17.80;;;;;12.87;100.00;100285.16;2105393;27;46752;-61
2024/01/06 03:02:04;;;;;;;;;19.00;19.00;;;;;12.87;100.00;100286.00;2107417;27;46414;-61
2024/01/06 03:03:04;;;;;;;;;18.75;18.75;;;;;12.87;100.00;100294.00;2104362;27;45917;-60
2024/01/06 03:04:05;;;;;;;;;14.25;14.25;;;;;12.86;100.00;100291.41;2105084;27;46953;-60
2024/01/06 03:05:05;;;;;;;;;15.25;15.25;;;;;12.87;100.00;100293.13;2102046;28;46286;-59
2024/01/06 03:06:06;;;;;;;;;18.50;15.50;;;;;12.86;100.00;100291.41;2098373;28;46228;-61
2024/01/06 03:07:06;;;;;;;;;16.67;15.33;;;;;12.87;100.00;100290.47;2107201;27;46774;-60
2024/01/06 03:08:06;;;;;;;;;16.50;12.00;;;;;12.86;100.00;100288.75;2110394;27;46659;-60
2024/01/06 03:09:07;;;;;;;;;17.50;16.00;;;;;12.87;100.00;100298.47;2105190;27;46623;-57
2024/01/06 03:10:08;;;;;;;;;16.00;14.75;;;;;12.86;100.00;100297.59;2109618;27;46792;-59
2024/01/06 03:11:08;;;;;;;;;18.50;15.75;;;;;12.85;100.00;100290.53;2107963;27;46124;-63
2024/01/06 03:12:08;;;;;;;;;15.00;15.00;;;;;12.85;100.00;100300.31;2106922;27;46385;-63
2024/01/06 03:13:09;;;;;;;;;15.75;15.25;;;;;12.84;100.00;100293.25;2109906;27;46061;-61
2024/01/06 03:14:09;;;;;;;;;14.50;14.50;;;;;12.83;100.00;100295.06;2105522;27;46434;-61
2024/01/06 03:15:10;;;;;;;;;16.50;16.50;;;;;12.82;100.00;100300.41;2112950;27;46179;-62
2024/01/06 03:16:11;;;;;;;;;15.00;15.00;;;;;12.84;100.00;100298.59;2104302;28;46436;-59
2024/01/06 03:17:11;;;;;;;;;12.75;12.50;;;;;12.83;100.00;100297.72;2096183;28;47128;-61
2024/01/06 03:18:12;;;;;;;;;15.50;13.50;;;;;12.82;100.00;100306.59;2108859;27;46323;-59
2024/01/06 03:19:12;;;;;;;;;16.50;15.00;;;;;12.82;100.00;100301.28;2107336;27;46607;-61
2024/01/06 03:20:12;;;;;;;;;14.00;14.00;;;;;12.83;100.00;100305.72;2106755;27;46778;-62
2024/01/06 03:21:20;;;;;;;;;12.25;11.00;;;;;12.86;100.00;100302.06;2110170;27;46248;-60
2024/01/06 03:22:20;;;;;;;;;16.20;16.00;;;;;12.84;100.00;100296.78;2106539;27;46434;-61
2024/01/06 03:23:20;;;;;;;;;12.75;12.75;;;;;12.84;100.00;100298.59;2108223;27;46340;-60
2024/01/06 03:24:22;;;;;;;;;16.75;15.75;;;;;12.90;100.00;100299.19;2110094;27;46551;-61
2024/01/06 03:25:23;;;;;;;;;19.40;14.40;;;;;12.86;100.00;100302.91;2105073;27;47135;-60
2024/01/06 03:26:23;;;;;;;;;14.50;14.50;;;;;12.86;100.00;100304.72;2098371;28;46319;-62
2024/01/06 03:27:24;;;;;;;;;15.00;15.00;;;;;12.86;100.00;100305.59;2101019;28;46722;-59
2024/01/06 03:28:24;;;;;;;;;15.25;15.25;;;;;12.87;100.00;100303.78;2104989;27;46212;-61
2024/01/06 03:29:24;;;;;;;;;15.00;15.00;;;;;12.87;100.00;100299.31;2105044;27;46487;-62
2024/01/06 03:30:25;;;;;;;;;12.00;12.00;;;;;12.88;100.00;100302.84;2106502;27;46211;-59
2024/01/06 03:31:25;;;;;;;;;16.25;16.25;;;;;12.89;100.00;100299.25;2113821;27;46796;-60
2024/01/06 03:32:25;;;;;;;;;13.25;13.25;;;;;12.90;100.00;100306.31;2104943;27;46863;-60
2024/01/06 03:33:26;;;;;;;;;17.75;17.50;;;;;12.90;100.00;100309.84;2106131;27;46549;-60
2024/01/06 03:34:26;;;;;;;;;17.00;15.75;;;;;12.89;100.00;100304.59;2113001;27;46248;-61
2024/01/06 03:35:26;;;;;;;;;16.00;15.75;;;;;12.89;100.00;100304.59;2110577;27;46454;-61
2024/01/06 03:36:27;;;;;;;;;16.75;16.25;;;;;12.89;100.00;100302.78;2113252;27;46335;-60
2024/01/06 03:37:27;;;;;;;;;13.00;13.00;;;;;12.89;100.00;100307.25;2110276;27;46207;-60
2024/01/06 03:38:27;;;;;;;;;18.25;14.75;;;;;12.88;100.00;100311.72;2111533;27;46638;-58
2024/01/06 03:39:27;;;;;;;;;15.00;15.00;;;;;12.88;100.00;100316.16;2113393;27;46495;-60
2024/01/06 03:40:28;;;;;;;;;17.00;17.00;;;;;12.88;100.00;100310.84;2089728;28;46804;-60
2024/01/06 03:41:28;;;;;;;;;14.75;14.75;;;;;12.87;100.00;100309.13;2086949;28;46032;-60
2024/01/06 03:42:28;;;;;;;;;13.25;13.25;;;;;12.89;100.00;100316.13;2111723;27;46560;-61
2024/01/06 03:43:29;;;;;;;;;15.50;14.25;;;;;12.90;100.00;100314.31;2107527;27;46509;-62
2024/01/06 03:44:30;;;;;;;;;16.00;15.50;;;;;12.90;100.00;100309.00;2113608;27;46774;-61
2024/01/06 03:45:30;;;;;;;;;18.00;16.60;;;;;12.91;100.00;100314.25;2111901;27;46753;-61
2024/01/06 03:46:31;;;;;;;;;20.75;19.75;;;;;12.91;100.00;100321.38;2110443;27;46272;-61
2024/01/06 03:47:31;;;;;;;;;14.00;14.00;;;;;12.89;100.00;100316.13;2113342;27;45904;-60
2024/01/06 03:48:31;;;;;;;;;16.50;15.50;;;;;12.89;100.00;100318.78;2111180;27;46660;-61
2024/01/06 03:49:32;;;;;;;;;18.50;16.50;;;;;12.90;100.00;100322.31;2113627;27;46999;-60
2024/01/06 03:50:32;;;;;;;;;17.25;17.25;;;;;12.92;100.00;100321.31;2112825;27;47052;-60
2024/01/06 03:51:32;;;;;;;;;17.75;17.25;;;;;12.93;100.00;100314.19;2112697;27;46430;-62
2024/01/06 03:52:33;;;;;;;;;16.75;15.50;;;;;12.93;100.00;100319.53;2113289;27;45371;-61
2024/01/06 03:53:33;;;;;;;;;21.25;18.50;;;;;12.93;100.00;100323.06;2097997;28;46506;-61
2024/01/06 03:54:34;;;;;;;;;17.75;15.25;;;;;12.89;100.00;100317.91;2095581;28;46373;-60
2024/01/06 03:55:34;;;;;;;;;12.75;12.75;;;;;12.92;100.00;100317.78;2104057;28;46422;-61
2024/01/06 03:56:34;;;;;;;;;15.00;13.50;;;;;12.92;100.00;100318.66;2104742;28;46310;-61
2024/01/06 03:57:34;;;;;;;;;18.00;17.75;;;;;12.91;100.00;100318.72;2103213;28;47215;-60
2024/01/06 03:58:35;;;;;;;;;15.75;15.50;;;;;13.09;100.00;100315.38;2110949;27;46779;-61
2024/01/06 03:59:35;;;;;;;;;19.25;19.25;;;;;13.13;100.00;100313.44;2105335;27;46100;-61
2024/01/06 04:00:35;;;;;;;;;18.00;17.00;;;;;13.13;100.00;100310.78;2095818;28;46014;-61
2024/01/06 04:01:36;;;;;;;;;16.25;15.50;;;;;13.15;100.00;100317.78;2100916;28;45968;-61
2024/01/06 04:02:36;;;;;;;;;17.50;17.50;;;;;13.15;100.00;100319.59;2105642;27;46342;-60
2024/01/06 04:03:36;;;;;;;;;16.25;15.75;;;;;13.15;100.00;100323.13;2104571;27;46163;-61
2024/01/06 04:04:37;;;;;;;;;11.50;11.50;;;;;13.10;100.00;100330.44;2104730;27;47016;-61
2024/01/06 04:05:37;;;;;;;;;20.00;18.50;;;;;13.10;100.00;100325.09;2095985;28;46092;-61
2024/01/06 04:06:37;;;;;;;;;18.75;15.75;;;;;13.11;100.00;100325.97;2098845;28;46559;-62
2024/01/06 04:07:38;;;;;;;;;19.50;18.00;;;;;13.12;100.00;100325.03;2106157;27;46626;-62
2024/01/06 04:08:41;;;;;;;;;16.50;16.50;;;;;13.07;100.00;100330.53;2105301;27;46221;-62
2024/01/06 04:09:43;;;;;;;;;18.00;18.00;;;;;13.09;100.00;100327.81;2104595;28;46618;-62
2024/01/06 04:10:44;;;;;;;;;18.60;16.40;;;;;13.08;100.00;100331.38;2104591;28;46972;-61
2024/01/06 04:11:44;;;;;;;;;16.75;15.75;;;;;13.09;100.00;100327.81;2112933;27;45911;-60
2024/01/06 04:12:44;;;;;;;;;15.50;15.50;;;;;13.08;100.00;100326.06;2108275;27;46739;-60
2024/01/06 04:13:44;;;;;;;;;16.75;15.75;;;;;13.09;100.00;100327.81;2113367;27;46363;-61
2024/01/06 04:14:45;;;;;;;;;17.00;17.00;;;;;13.09;100.00;100327.81;2102170;28;46561;-59
2024/01/06 04:15:45;;;;;;;;;16.75;16.00;;;;;13.09;100.00;100328.69;2101957;28;46275;-60
2024/01/06 04:16:46;;;;;;;;;16.00;15.25;;;;;13.08;100.00;100326.06;2109744;27;46869;-61
2024/01/06 04:17:49;;;;;;;;;16.00;14.25;;;;;13.09;100.00;100331.34;2108673;27;46843;-61
2024/01/06 04:18:49;;;;;;;;;18.40;16.80;;;;;13.09;100.00;100333.16;2111541;27;46805;-61
2024/01/06 04:19:49;;;;;;;;;14.50;14.50;;;;;13.09;100.00;100341.16;2112689;27;46564;-63
2024/01/06 04:20:50;;;;;;;;;16.25;16.25;;;;;13.08;100.00;100332.25;2111289;27;46670;-60
2024/01/06 04:21:50;;;;;;;;;18.00;18.00;;;;;13.08;100.00;100331.38;2113493;27;46086;-60
2024/01/06 04:22:51;;;;;;;;;16.75;16.75;;;;;13.10;100.00;100337.56;2110418;27;45881;-61
2024/01/06 04:23:51;;;;;;;;;18.00;16.00;;;;;13.10;100.00;100341.09;2111658;27;46610;-60
2024/01/06 04:24:51;;;;;;;;;13.75;12.00;;;;;13.09;100.00;100342.00;2113489;27;46685;-62
2024/01/06 04:25:52;;;;;;;;;15.25;14.25;;;;;13.08;100.00;100340.25;2102820;28;46567;-60
2024/01/06 04:26:52;;;;;;;;;16.75;16.25;;;;;13.10;100.00;100338.41;2103508;28;46011;-61
2024/01/06 04:27:53;;;;;;;;;19.75;17.50;;;;;13.10;100.00;100343.75;2105414;27;46922;-62
2024/01/06 04:28:53;;;;;;;;;15.25;13.00;;;;;13.11;100.00;100339.28;2105736;27;46171;-61
2024/01/06 04:29:53;;;;;;;;;18.75;17.00;;;;;13.11;100.00;100348.16;2103692;28;45644;-62
2024/01/06 04:30:54;;;;;;;;;16.75;16.50;;;;;13.10;100.00;100345.53;2105162;27;46506;-61
2024/01/06 04:31:54;;;;;;;;;15.50;15.00;;;;;13.08;100.00;100339.38;2104670;27;46743;-61